Time;durP1;ratioP1;P1;durP2;ratioP2;P2;SDS_P1;SDS_P2;PMS_P1;PMS_P2;Temp;Humidity;BMP_temperature;BMP_pressure;BME280_temperature;BME280_humidity;BME280_pressure;Samples;Min_cycle;Max_cycle;Signal;HPM_P1;HPM_P2
2021/12/12 00:00:32;;;;;;;22.40;7.30;;;7.60;99.90;;;;;;5086416;28;20284;-64
2021/12/12 00:03:15;;;;;;;19.33;8.20;;;7.70;99.90;;;;;;5092538;28;20188;-64
2021/12/12 00:05:54;;;;;;;19.37;8.60;;;7.60;99.90;;;;;;5091946;28;20268;-64
2021/12/12 00:08:26;;;;;;;16.37;8.17;;;7.70;99.90;;;;;;5071364;28;20642;-64
2021/12/12 00:10:58;;;;;;;15.57;7.43;;;7.80;99.90;;;;;;5074184;28;20523;-65
2021/12/12 00:13:37;;;;;;;18.60;7.67;;;7.70;99.90;;;;;;5073629;28;20192;-63
2021/12/12 00:16:04;;;;;;;13.07;8.80;;;7.60;99.90;;;;;;5077966;28;20545;-63
2021/12/12 00:18:30;;;;;;;23.53;8.07;;;7.60;99.90;;;;;;5074612;28;20212;-63
2021/12/12 00:20:57;;;;;;;13.30;7.90;;;7.60;99.90;;;;;;5085814;28;20197;-63
2021/12/12 00:23:23;;;;;;;12.53;6.90;;;7.50;99.90;;;;;;5059121;28;20192;-63
2021/12/12 00:25:53;;;;;;;17.07;8.30;;;7.50;99.90;;;;;;5092392;28;20177;-63
2021/12/12 00:28:21;;;;;;;11.90;7.73;;;7.40;99.90;;;;;;5082558;28;20229;-63
2021/12/12 00:30:52;;;;;;;18.63;8.67;;;7.30;99.90;;;;;;5074347;28;20242;-63
2021/12/12 00:33:19;;;;;;;18.87;7.13;;;7.40;99.90;;;;;;5059265;28;20211;-63
2021/12/12 00:35:45;;;;;;;13.63;7.30;;;7.40;99.90;;;;;;5068461;28;20203;-63
2021/12/12 00:38:20;;;;;;;19.50;8.03;;;7.40;99.90;;;;;;5085405;28;20662;-64
2021/12/12 00:40:50;;;;;;;13.77;6.40;;;7.40;99.90;;;;;;5096589;28;20166;-64
2021/12/12 00:43:29;;;;;;;11.00;6.73;;;7.50;99.90;;;;;;5076754;28;20252;-63
2021/12/12 00:45:59;;;;;;;20.67;6.40;;;7.50;99.90;;;;;;5082235;28;20260;-63
2021/12/12 00:48:27;;;;;;;14.20;6.83;;;7.50;99.90;;;;;;5096152;28;20234;-63
2021/12/12 00:50:53;;;;;;;14.97;6.83;;;7.50;99.90;;;;;;5095759;28;20188;-62
2021/12/12 00:53:21;;;;;;;10.57;5.93;;;7.50;99.90;;;;;;5045428;28;20189;-62
2021/12/12 00:55:48;;;;;;;14.40;5.53;;;7.40;99.90;;;;;;5087093;28;20215;-62
2021/12/12 00:58:16;;;;;;;15.63;5.93;;;7.40;99.90;;;;;;5086904;28;20296;-62
2021/12/12 01:01:02;;;;;;;13.67;6.80;;;7.40;99.90;;;;;;5095392;28;20246;-62
2021/12/12 01:03:39;;;;;;;14.50;5.70;;;7.40;99.90;;;;;;5079850;28;20587;-63
2021/12/12 01:06:07;;;;;;;15.03;6.60;;;7.40;99.90;;;;;;5095831;28;20574;-62
2021/12/12 01:08:34;;;;;;;16.80;5.70;;;7.50;99.90;;;;;;5095985;28;20664;-64
2021/12/12 01:11:13;;;;;;;11.90;5.97;;;7.50;99.90;;;;;;5095801;28;20230;-62
2021/12/12 01:13:40;;;;;;;15.53;6.03;;;7.50;99.90;;;;;;5081493;28;20176;-63
2021/12/12 01:16:12;;;;;;;14.17;6.67;;;7.60;99.90;;;;;;5074352;28;20193;-62
2021/12/12 01:18:44;;;;;;;12.03;6.10;;;7.50;99.90;;;;;;5083835;28;20584;-63
2021/12/12 01:21:19;;;;;;;12.27;6.33;;;7.50;99.90;;;;;;5095884;28;20184;-63
2021/12/12 01:23:48;;;;;;;15.37;6.27;;;7.50;99.90;;;;;;5095447;28;20175;-63
2021/12/12 01:26:14;;;;;;;20.40;6.40;;;7.50;99.90;;;;;;5062386;28;20281;-63
2021/12/12 01:28:43;;;;;;;17.60;6.17;;;7.50;99.90;;;;;;5077515;28;20193;-63
2021/12/12 01:31:15;;;;;;;15.03;6.60;;;7.50;99.90;;;;;;5095543;28;20267;-62
2021/12/12 01:33:41;;;;;;;19.13;6.57;;;7.40;99.90;;;;;;5095600;28;20181;-63
2021/12/12 01:36:23;;;;;;;20.33;5.70;;;7.40;99.90;;;;;;5065780;28;20219;-63
2021/12/12 01:38:53;;;;;;;12.57;5.77;;;7.40;99.90;;;;;;5076372;28;20217;-63
2021/12/12 01:41:25;;;;;;;10.13;5.10;;;7.50;99.90;;;;;;5067011;28;20176;-63
2021/12/12 01:43:55;;;;;;;19.23;5.40;;;7.50;99.90;;;;;;5077509;28;20196;-62
2021/12/12 01:46:26;;;;;;;15.77;5.63;;;7.40;99.90;;;;;;5076525;28;20193;-63
2021/12/12 01:49:03;;;;;;;5.40;4.10;;;7.40;99.90;;;;;;5075725;28;20204;-62
2021/12/12 01:51:29;;;;;;;9.87;5.03;;;7.40;99.90;;;;;;5079450;28;20700;-63
2021/12/12 01:54:01;;;;;;;10.63;4.80;;;7.30;99.90;;;;;;5095185;28;20188;-63
2021/12/12 01:56:43;;;;;;;11.53;5.00;;;7.40;99.90;;;;;;5077248;28;20208;-63
2021/12/12 01:59:11;;;;;;;10.73;5.23;;;7.30;99.90;;;;;;5079804;28;20213;-63
2021/12/12 02:01:44;;;;;;;12.37;5.20;;;7.30;99.90;;;;;;5088304;28;20216;-64
2021/12/12 02:04:17;;;;;;;8.63;4.63;;;7.30;99.90;;;;;;5094986;28;20212;-62
2021/12/12 02:06:44;;;;;;;10.30;4.50;;;7.30;99.90;;;;;;5094869;28;20208;-62
2021/12/12 02:09:11;;;;;;;15.27;5.57;;;7.40;99.90;;;;;;5076561;28;20203;-62
2021/12/12 02:11:38;;;;;;;12.87;5.53;;;7.40;99.90;;;;;;5076259;28;20181;-62
2021/12/12 02:14:11;;;;;;;12.13;4.80;;;7.40;99.90;;;;;;5081851;28;20267;-62
2021/12/12 02:16:42;;;;;;;11.40;4.53;;;7.40;99.90;;;;;;5079191;28;20177;-62
2021/12/12 02:19:09;;;;;;;10.90;4.67;;;7.40;99.90;;;;;;5076322;28;20215;-62
2021/12/12 02:21:55;;;;;;;17.77;4.33;;;7.50;99.90;;;;;;5076840;28;20181;-62
2021/12/12 02:35:24;;;;;;;5.00;4.00;;;7.60;99.90;;;;;;5094208;28;20195;-62
2021/12/12 02:37:56;;;;;;;8.80;4.40;;;7.60;99.90;;;;;;5091176;28;20212;-62
2021/12/12 02:40:35;;;;;;;11.43;4.50;;;7.60;99.90;;;;;;5080643;28;20711;-64
2021/12/12 02:43:03;;;;;;;14.07;5.20;;;7.60;99.90;;;;;;5093446;28;20555;-63
2021/12/12 02:45:32;;;;;;;8.97;4.97;;;7.50;99.90;;;;;;5082538;28;20202;-63
2021/12/12 02:48:02;;;;;;;13.80;4.93;;;7.40;99.90;;;;;;5093720;28;20672;-62
2021/12/12 02:50:40;;;;;;;9.67;4.90;;;7.40;99.90;;;;;;5093501;28;20181;-62
2021/12/12 02:53:09;;;;;;;10.60;5.00;;;7.50;99.90;;;;;;5093812;28;20184;-62
2021/12/12 02:55:39;;;;;;;10.10;5.00;;;7.50;99.90;;;;;;5092700;28;20264;-63
2021/12/12 02:58:07;;;;;;;12.90;6.13;;;7.60;99.90;;;;;;5072607;28;20232;-62
2021/12/12 03:00:39;;;;;;;9.93;5.17;;;7.70;99.90;;;;;;5092651;28;20196;-63
2021/12/12 03:03:05;;;;;;;12.67;4.80;;;7.60;99.90;;;;;;5093467;28;20181;-62
2021/12/12 03:05:40;;;;;;;10.83;4.97;;;7.70;99.90;;;;;;5093899;28;20185;-62
2021/12/12 03:08:06;;;;;;;6.37;5.27;;;7.70;99.90;;;;;;5075477;28;20188;-66
2021/12/12 03:10:36;;;;;;;8.03;5.30;;;7.70;99.90;;;;;;5075726;28;20299;-62
2021/12/12 03:13:03;;;;;;;14.07;5.73;;;7.70;99.90;;;;;;5093669;28;20212;-62
2021/12/12 03:15:38;;;;;;;8.10;5.43;;;7.60;99.90;;;;;;5075065;28;20185;-64
2021/12/12 03:18:06;;;;;;;11.83;5.73;;;7.60;99.90;;;;;;5081016;28;20226;-62
2021/12/12 03:20:36;;;;;;;10.03;6.13;;;7.70;99.90;;;;;;5092904;28;20264;-62
2021/12/12 03:23:33;;;;;;;11.33;6.67;;;7.70;99.90;;;;;;5093502;28;20622;-62
2021/12/12 03:26:05;;;;;;;8.83;5.77;;;7.60;99.90;;;;;;5073075;28;20250;-62
2021/12/12 03:28:35;;;;;;;12.10;7.43;;;7.60;99.90;;;;;;5080810;28;20181;-62
2021/12/12 03:31:05;;;;;;;10.93;6.93;;;7.60;99.90;;;;;;5083358;28;20185;-62
2021/12/12 03:33:32;;;;;;;18.37;6.33;;;7.70;99.90;;;;;;5089002;28;20216;-62
2021/12/12 03:36:02;;;;;;;10.30;7.07;;;7.60;99.90;;;;;;5056227;28;20182;-62
2021/12/12 03:38:30;;;;;;;14.00;7.30;;;7.60;99.90;;;;;;5061106;28;20215;-62
2021/12/12 03:41:00;;;;;;;13.10;7.57;;;7.70;99.90;;;;;;5064194;28;20524;-62
2021/12/12 03:43:26;;;;;;;10.67;6.90;;;7.70;99.90;;;;;;5074157;28;20208;-62
2021/12/12 03:45:56;;;;;;;11.63;7.43;;;7.60;99.90;;;;;;5092805;28;20630;-63
2021/12/12 03:48:32;;;;;;;13.93;8.40;;;7.60;99.90;;;;;;5074128;28;20281;-61
2021/12/12 03:51:02;;;;;;;12.73;7.97;;;7.60;99.90;;;;;;5055889;28;20177;-62
2021/12/12 03:53:29;;;;;;;12.33;7.50;;;7.50;99.90;;;;;;5085154;28;20180;-62
2021/12/12 03:55:56;;;;;;;9.23;7.40;;;7.60;99.90;;;;;;5074385;28;20189;-63
2021/12/12 03:58:22;;;;;;;13.97;8.27;;;7.60;99.90;;;;;;5093559;28;20209;-62
2021/12/12 04:00:53;;;;;;;15.57;8.20;;;7.60;99.90;;;;;;5074986;28;20200;-62
2021/12/12 04:03:20;;;;;;;12.60;7.27;;;7.60;99.90;;;;;;5092426;28;20173;-62
2021/12/12 04:05:49;;;;;;;15.03;7.97;;;7.60;99.90;;;;;;5091785;28;20211;-62
2021/12/12 04:08:15;;;;;;;11.47;7.73;;;7.60;99.90;;;;;;5073587;28;20182;-63
2021/12/12 04:10:42;;;;;;;15.57;8.47;;;7.70;99.90;;;;;;5070662;28;20668;-62
2021/12/12 04:13:08;;;;;;;11.17;7.67;;;7.70;99.90;;;;;;5088969;28;20616;-62
2021/12/12 04:15:34;;;;;;;10.97;8.10;;;7.70;99.90;;;;;;5055594;28;20756;-62
2021/12/12 04:18:00;;;;;;;11.20;8.13;;;7.70;99.90;;;;;;5055452;28;20239;-62
2021/12/12 04:20:32;;;;;;;12.10;8.17;;;7.60;99.90;;;;;;5078960;28;20192;-62
2021/12/12 04:22:58;;;;;;;12.23;8.57;;;7.60;99.90;;;;;;5092529;28;20216;-63
2021/12/12 04:25:24;;;;;;;14.27;8.07;;;7.60;99.90;;;;;;5083880;28;20272;-63
2021/12/12 04:27:51;;;;;;;8.27;7.30;;;7.60;99.90;;;;;;5081254;28;20185;-62
2021/12/12 04:30:17;;;;;;;14.97;8.10;;;7.60;99.90;;;;;;5086113;28;20576;-62
2021/12/12 04:32:45;;;;;;;9.57;7.27;;;7.70;99.90;;;;;;5062652;28;20177;-62
2021/12/12 04:35:21;;;;;;;9.87;7.23;;;7.70;99.90;;;;;;5092585;28;20191;-63
2021/12/12 04:37:47;;;;;;;11.17;7.43;;;7.70;99.90;;;;;;5092614;28;20196;-62
2021/12/12 04:40:17;;;;;;;11.83;7.27;;;7.70;99.90;;;;;;5074011;28;20215;-62
2021/12/12 04:42:44;;;;;;;11.43;7.83;;;7.70;99.90;;;;;;5092531;28;20179;-62
2021/12/12 04:45:19;;;;;;;9.47;7.33;;;7.70;99.90;;;;;;5092170;28;20188;-62
2021/12/12 04:51:20;;;;;;;12.50;7.40;;;7.70;99.90;;;;;;5085236;28;20616;-62
2021/12/12 04:54:07;;;;;;;13.30;7.93;;;7.60;99.90;;;;;;5083197;28;20551;-63
2021/12/12 04:56:44;;;;;;;10.60;7.83;;;7.70;99.90;;;;;;5091528;28;20180;-63
2021/12/12 04:59:34;;;;;;;9.33;7.57;;;7.50;99.90;;;;;;5073223;28;20205;-62
2021/12/12 05:02:10;;;;;;;14.10;8.17;;;7.60;99.90;;;;;;5072249;28;20249;-62
2021/12/12 05:04:41;;;;;;;9.70;7.33;;;7.70;99.90;;;;;;5075570;28;20652;-62
2021/12/12 05:07:19;;;;;;;9.73;6.37;;;7.70;99.90;;;;;;5092561;28;20189;-63
2021/12/12 05:09:50;;;;;;;12.33;8.33;;;7.70;99.90;;;;;;5073238;28;20307;-65
2021/12/12 05:12:29;;;;;;;13.43;7.50;;;7.80;99.90;;;;;;5055426;28;20190;-66
2021/12/12 05:15:03;;;;;;;11.43;7.77;;;7.80;99.90;;;;;;5071209;28;20187;-67
2021/12/12 05:17:49;;;;;;;12.00;6.73;;;7.70;99.90;;;;;;5054799;28;20170;-66
2021/12/12 05:20:29;;;;;;;10.93;7.83;;;7.70;99.90;;;;;;5064285;28;20213;-67
2021/12/12 05:22:58;;;;;;;10.33;7.50;;;7.70;99.90;;;;;;5095799;28;20208;-65
2021/12/12 05:25:28;;;;;;;9.40;7.70;;;7.60;99.90;;;;;;5095672;28;20233;-66
2021/12/12 05:27:58;;;;;;;13.90;8.23;;;7.60;99.90;;;;;;5093257;28;20188;-65
2021/12/12 05:30:28;;;;;;;9.63;6.93;;;7.70;99.90;;;;;;5095109;28;20180;-64
2021/12/12 05:32:54;;;;;;;9.87;7.70;;;7.70;99.90;;;;;;5085537;28;20181;-63
2021/12/12 05:35:25;;;;;;;9.33;7.37;;;7.70;99.90;;;;;;5090938;28;20184;-64
2021/12/12 05:37:53;;;;;;;9.60;7.20;;;7.70;99.90;;;;;;5078788;28;20220;-64
2021/12/12 05:40:22;;;;;;;10.60;7.30;;;7.70;99.90;;;;;;5075677;28;20251;-64
2021/12/12 05:42:51;;;;;;;13.60;7.40;;;7.80;99.90;;;;;;5089693;28;20181;-64
2021/12/12 05:45:17;;;;;;;10.20;6.90;;;7.80;99.90;;;;;;5091527;28;20271;-64
2021/12/12 05:47:44;;;;;;;11.53;7.77;;;7.70;99.90;;;;;;5095029;28;20269;-64
2021/12/12 05:50:11;;;;;;;12.27;7.57;;;7.70;99.90;;;;;;5060480;28;20551;-64
2021/12/12 05:52:37;;;;;;;8.80;7.03;;;7.60;99.90;;;;;;5077285;28;20268;-63
2021/12/12 05:55:07;;;;;;;8.70;6.80;;;7.70;99.90;;;;;;5043733;28;20276;-63
2021/12/12 05:57:33;;;;;;;14.30;7.10;;;7.80;99.90;;;;;;5095128;28;20630;-63
2021/12/12 05:59:59;;;;;;;9.67;7.40;;;7.70;99.90;;;;;;5091695;28;20232;-62
2021/12/12 06:02:26;;;;;;;7.60;6.10;;;7.80;99.90;;;;;;5084633;28;20188;-62
2021/12/12 06:04:56;;;;;;;10.27;8.17;;;7.90;99.90;;;;;;5068839;28;20189;-63
2021/12/12 06:07:22;;;;;;;9.07;6.73;;;7.90;99.90;;;;;;5094121;28;20180;-64
2021/12/12 06:09:49;;;;;;;7.87;5.83;;;7.80;99.90;;;;;;5095254;28;20246;-64
2021/12/12 06:12:17;;;;;;;9.63;6.90;;;7.90;99.90;;;;;;5040481;28;20225;-64
2021/12/12 06:14:45;;;;;;;8.53;7.10;;;8.00;99.90;;;;;;5077130;28;20227;-61
2021/12/12 06:17:13;;;;;;;11.82;8.45;;;8.00;99.90;;;;;;5094405;28;20401;-65
2021/12/12 06:19:40;;;;;;;10.80;7.03;;;8.00;99.90;;;;;;5080666;28;20570;-63
2021/12/12 06:22:08;;;;;;;9.33;6.30;;;8.10;99.90;;;;;;5086360;28;20212;-62
2021/12/12 06:24:38;;;;;;;10.23;7.80;;;8.10;99.90;;;;;;5073437;28;20541;-63
2021/12/12 06:27:14;;;;;;;11.90;6.97;;;8.10;99.90;;;;;;5059007;28;20189;-63
2021/12/12 06:29:41;;;;;;;9.43;5.90;;;8.00;99.90;;;;;;5076154;28;20188;-63
2021/12/12 06:32:07;;;;;;;9.37;6.77;;;8.00;99.90;;;;;;5076636;28;20193;-65
2021/12/12 06:34:33;;;;;;;11.47;7.27;;;8.10;99.90;;;;;;5085631;28;20189;-63
2021/12/12 06:37:00;;;;;;;14.83;7.70;;;8.10;99.90;;;;;;5049993;28;20189;-63
2021/12/12 06:39:26;;;;;;;10.83;7.53;;;8.00;99.90;;;;;;5094212;28;20240;-63
2021/12/12 06:41:53;;;;;;;13.00;6.63;;;8.20;99.90;;;;;;5093698;28;20259;-63
2021/12/12 06:44:19;;;;;;;12.30;7.33;;;8.10;99.90;;;;;;5059356;28;20184;-63
2021/12/12 06:46:45;;;;;;;11.87;7.13;;;8.10;99.90;;;;;;5076322;28;20664;-63
2021/12/12 06:49:14;;;;;;;14.23;8.13;;;8.10;99.90;;;;;;5077470;28;20642;-63
2021/12/12 06:51:52;;;;;;;16.40;8.77;;;8.10;99.90;;;;;;5087392;28;20648;-63
2021/12/12 06:54:23;;;;;;;15.63;8.70;;;8.10;99.90;;;;;;5094351;28;20632;-63
2021/12/12 06:56:50;;;;;;;17.30;7.93;;;8.20;99.90;;;;;;5093872;28;20189;-63
2021/12/12 06:59:16;;;;;;;18.63;8.33;;;8.20;99.90;;;;;;5066554;28;20209;-65
2021/12/12 07:01:42;;;;;;;15.93;8.93;;;8.20;99.90;;;;;;5094174;28;20184;-63
2021/12/12 07:04:10;;;;;;;14.63;8.93;;;8.20;99.90;;;;;;5075498;28;20600;-64
2021/12/12 07:06:37;;;;;;;21.40;10.27;;;8.20;99.90;;;;;;5093174;28;20241;-63
2021/12/12 07:09:05;;;;;;;22.20;10.00;;;8.20;99.90;;;;;;5093716;28;20197;-63
2021/12/12 07:11:32;;;;;;;24.27;9.20;;;8.10;99.90;;;;;;5089579;28;20185;-63
2021/12/12 07:13:59;;;;;;;14.23;8.23;;;8.30;99.90;;;;;;5067845;28;20193;-64
2021/12/12 07:16:25;;;;;;;20.17;9.73;;;8.40;99.90;;;;;;5074797;28;20631;-64
2021/12/12 07:18:53;;;;;;;18.90;9.73;;;8.40;99.90;;;;;;5068162;28;20758;-63
2021/12/12 07:21:19;;;;;;;21.60;9.63;;;8.50;99.90;;;;;;5075329;28;20660;-63
2021/12/12 07:23:47;;;;;;;21.90;8.97;;;8.40;99.90;;;;;;5093457;28;20288;-63
2021/12/12 07:26:15;;;;;;;20.97;9.33;;;8.40;99.90;;;;;;5093728;28;20241;-64
2021/12/12 07:28:42;;;;;;;16.83;9.30;;;8.30;99.90;;;;;;5092672;28;20658;-63
2021/12/12 07:31:12;;;;;;;25.47;10.60;;;8.40;99.90;;;;;;5075410;28;20185;-63
2021/12/12 07:33:38;;;;;;;21.87;9.97;;;8.40;99.90;;;;;;5081261;28;20531;-63
2021/12/12 07:36:07;;;;;;;20.77;9.43;;;8.50;99.90;;;;;;5058675;28;20188;-63
2021/12/12 07:38:33;;;;;;;19.10;9.27;;;8.50;99.90;;;;;;5092766;28;20208;-63
2021/12/12 07:41:01;;;;;;;22.53;9.70;;;8.40;99.90;;;;;;5074562;28;20192;-63
2021/12/12 07:43:29;;;;;;;22.37;10.47;;;8.40;99.90;;;;;;5058350;28;20197;-63
2021/12/12 07:45:56;;;;;;;17.80;9.20;;;8.50;99.90;;;;;;5092703;28;20652;-63
2021/12/12 07:48:22;;;;;;;18.97;9.47;;;8.60;99.90;;;;;;5074491;28;20649;-64
2021/12/12 07:50:49;;;;;;;20.33;10.43;;;8.60;99.90;;;;;;5092708;28;20285;-63
2021/12/12 07:53:17;;;;;;;25.00;10.23;;;8.60;99.90;;;;;;5093103;28;20184;-64
2021/12/12 07:55:43;;;;;;;26.93;9.53;;;8.50;99.90;;;;;;5074664;28;20725;-63
2021/12/12 07:58:13;;;;;;;23.17;10.57;;;8.60;99.90;;;;;;5090382;28;20211;-63
2021/12/12 08:00:47;;;;;;;21.17;9.30;;;8.60;99.90;;;;;;5074420;28;20170;-63
2021/12/12 08:03:15;;;;;;;22.03;10.77;;;8.70;99.90;;;;;;5087143;28;20185;-64
2021/12/12 08:05:42;;;;;;;21.93;10.73;;;8.70;99.90;;;;;;5078586;28;20630;-65
2021/12/12 08:08:11;;;;;;;17.73;10.97;;;8.60;99.90;;;;;;5077004;28;20197;-64
2021/12/12 08:10:40;;;;;;;31.53;10.87;;;8.60;99.90;;;;;;5064514;28;20214;-64
2021/12/12 08:13:08;;;;;;;26.03;10.53;;;8.50;99.90;;;;;;5077058;28;20185;-64
2021/12/12 08:15:34;;;;;;;22.27;10.70;;;8.60;99.90;;;;;;5070645;28;20182;-64
2021/12/12 08:18:01;;;;;;;21.00;10.17;;;8.60;99.90;;;;;;5048291;28;20257;-62
2021/12/12 08:20:30;;;;;;;20.77;10.83;;;8.60;99.90;;;;;;5054046;28;20211;-63
2021/12/12 08:22:57;;;;;;;19.60;9.90;;;8.50;99.90;;;;;;5055426;28;20178;-63
2021/12/12 08:25:24;;;;;;;24.20;10.70;;;8.50;99.90;;;;;;5080605;28;20245;-63
2021/12/12 08:27:51;;;;;;;25.87;11.10;;;8.50;99.90;;;;;;5092699;28;20195;-63
2021/12/12 08:30:18;;;;;;;24.53;11.60;;;8.60;99.90;;;;;;5092303;28;20645;-63
2021/12/12 08:32:48;;;;;;;23.77;11.57;;;8.70;99.90;;;;;;5092103;28;20223;-63
2021/12/12 08:35:15;;;;;;;25.70;10.57;;;8.70;99.90;;;;;;5092682;28;20189;-63
2021/12/12 08:37:43;;;;;;;24.13;12.73;;;8.70;99.90;;;;;;5092357;28;20184;-63
2021/12/12 08:40:14;;;;;;;31.07;13.57;;;8.70;99.90;;;;;;5090494;28;20535;-63
2021/12/12 08:42:40;;;;;;;20.27;10.57;;;8.70;99.90;;;;;;5056033;28;20268;-64
2021/12/12 08:45:10;;;;;;;30.33;11.47;;;8.70;99.90;;;;;;5076042;28;20206;-63
2021/12/12 08:47:37;;;;;;;28.43;12.53;;;8.70;99.90;;;;;;5092468;28;20188;-63
2021/12/12 08:50:08;;;;;;;33.03;12.93;;;8.70;99.90;;;;;;5071649;28;20648;-63
2021/12/12 08:52:39;;;;;;;26.90;12.40;;;8.70;99.90;;;;;;5061404;28;20559;-63
2021/12/12 08:55:14;;;;;;;22.40;11.30;;;8.80;99.90;;;;;;5071663;28;20185;-63
2021/12/12 08:57:57;;;;;;;29.20;12.37;;;8.70;99.90;;;;;;5081163;28;20176;-64
2021/12/12 09:00:25;;;;;;;31.27;13.23;;;8.80;99.90;;;;;;5074553;28;20280;-64
2021/12/12 09:02:53;;;;;;;25.00;11.67;;;8.80;99.90;;;;;;5064274;28;20260;-62
2021/12/12 09:05:26;;;;;;;19.87;10.93;;;8.90;99.90;;;;;;5073346;28;20189;-64
2021/12/12 09:07:57;;;;;;;24.97;12.03;;;8.80;99.90;;;;;;5081245;28;20177;-63
2021/12/12 09:10:26;;;;;;;17.33;10.70;;;9.00;99.90;;;;;;5096257;28;20229;-65
2021/12/12 09:13:06;;;;;;;22.43;11.10;;;8.90;99.90;;;;;;5096066;28;20255;-63
2021/12/12 09:16:11;;;;;;;25.70;11.87;;;8.90;99.90;;;;;;5077741;28;20202;-64
2021/12/12 09:18:45;;;;;;;21.17;10.83;;;9.00;99.90;;;;;;4976884;28;20219;-64
2021/12/12 09:21:47;;;;;;;33.67;12.30;;;8.90;99.90;;;;;;5047285;28;20542;-63
2021/12/12 09:25:03;;;;;;;22.57;11.63;;;8.90;99.90;;;;;;5076001;28;20710;-63
2021/12/12 09:27:32;;;;;;;25.73;11.43;;;9.10;99.90;;;;;;5041058;28;20246;-63
2021/12/12 09:30:08;;;;;;;15.50;9.33;;;9.10;99.90;;;;;;5070816;28;20199;-63
2021/12/12 09:32:41;;;;;;;19.87;11.60;;;9.10;99.90;;;;;;5058284;28;20185;-64
2021/12/12 09:35:20;;;;;;;23.10;11.47;;;9.10;99.90;;;;;;5076106;28;20680;-64
2021/12/12 09:38:25;;;;;;;21.07;11.53;;;9.10;99.90;;;;;;5076607;28;20193;-63
2021/12/12 09:41:25;;;;;;;20.17;9.77;;;9.10;99.90;;;;;;5068061;28;20189;-66
2021/12/12 09:44:39;;;;;;;15.90;9.50;;;9.20;99.90;;;;;;5074830;28;20180;-64
2021/12/12 09:47:28;;;;;;;25.50;10.53;;;9.30;99.90;;;;;;5078389;28;20181;-64
2021/12/12 09:53:28;;;;;;;26.80;12.03;;;9.30;99.90;;;;;;5015669;28;20200;-63
2021/12/12 09:56:28;;;;;;;17.07;8.43;;;9.40;99.90;;;;;;5095216;28;20195;-64
2021/12/12 09:59:12;;;;;;;24.90;10.93;;;9.30;99.90;;;;;;5071919;28;20228;-64
2021/12/12 10:01:47;;;;;;;20.23;10.73;;;9.30;99.90;;;;;;5065468;28;20638;-64
2021/12/12 10:04:46;;;;;;;15.07;8.93;;;9.20;99.90;;;;;;5074733;28;20176;-63
2021/12/12 10:07:54;;;;;;;22.70;11.17;;;9.30;99.90;;;;;;5086921;28;20199;-64
2021/12/12 10:10:32;;;;;;;21.30;11.00;;;9.30;99.90;;;;;;5076135;28;20207;-65
2021/12/12 10:13:05;;;;;;;19.47;10.17;;;9.30;99.90;;;;;;5094463;28;20587;-63
2021/12/12 10:15:43;;;;;;;21.20;9.93;;;9.30;99.90;;;;;;5076671;28;20626;-63
2021/12/12 10:18:18;;;;;;;20.83;12.73;;;9.40;99.90;;;;;;5091748;28;20291;-63
2021/12/12 10:21:01;;;;;;;20.57;10.60;;;9.50;99.90;;;;;;5075555;28;20189;-64
2021/12/12 10:23:48;;;;;;;21.10;11.93;;;9.50;99.90;;;;;;5085148;28;20185;-63
2021/12/12 10:26:21;;;;;;;18.83;11.27;;;9.50;99.90;;;;;;5094472;28;20242;-64
2021/12/12 10:28:53;;;;;;;16.63;10.63;;;9.40;99.90;;;;;;5094355;28;20188;-64
2021/12/12 10:31:31;;;;;;;18.07;9.47;;;9.40;99.90;;;;;;5076670;28;20227;-64
2021/12/12 10:34:13;;;;;;;22.30;11.67;;;9.40;99.90;;;;;;5072619;28;20276;-63
2021/12/12 10:37:14;;;;;;;18.23;11.70;;;9.40;99.90;;;;;;5087472;28;20595;-64
2021/12/12 10:39:52;;;;;;;18.77;11.07;;;9.40;99.90;;;;;;5080700;28;20557;-64
2021/12/12 10:42:28;;;;;;;22.07;11.70;;;9.40;99.90;;;;;;5094530;28;20195;-64
2021/12/12 10:44:59;;;;;;;19.47;11.80;;;9.50;99.90;;;;;;5094260;28;20631;-64
2021/12/12 10:48:00;;;;;;;19.77;10.70;;;9.50;99.90;;;;;;5080523;28;20272;-63
2021/12/12 10:50:43;;;;;;;21.13;11.13;;;9.50;99.90;;;;;;5065520;28;20184;-63
2021/12/12 10:53:29;;;;;;;25.80;11.60;;;9.50;99.90;;;;;;5093577;28;20191;-64
2021/12/12 10:56:21;;;;;;;24.53;13.57;;;9.40;99.90;;;;;;5094073;28;20267;-64
2021/12/12 10:58:58;;;;;;;18.80;11.93;;;9.50;99.90;;;;;;5074636;28;20197;-64
2021/12/12 11:01:30;;;;;;;24.53;12.70;;;9.50;99.90;;;;;;5085544;28;20192;-64
2021/12/12 11:04:11;;;;;;;25.93;15.17;;;9.60;99.90;;;;;;5079424;28;20276;-65
2021/12/12 11:06:42;;;;;;;25.13;11.90;;;9.60;99.90;;;;;;5085802;28;20191;-64
2021/12/12 11:09:18;;;;;;;24.40;12.90;;;9.70;99.90;;;;;;5056276;28;20197;-65
2021/12/12 11:11:48;;;;;;;24.10;13.73;;;9.80;99.90;;;;;;5071518;28;20732;-64
2021/12/12 11:14:28;;;;;;;28.67;13.30;;;9.90;99.90;;;;;;5075410;28;20234;-64
2021/12/12 11:17:00;;;;;;;24.00;13.73;;;9.70;99.90;;;;;;5071381;28;20598;-64
2021/12/12 11:19:35;;;;;;;23.50;13.40;;;9.80;99.90;;;;;;5085939;28;20215;-64
2021/12/12 11:22:07;;;;;;;20.97;12.33;;;9.90;99.90;;;;;;5093178;28;20190;-65
2021/12/12 11:24:40;;;;;;;25.00;13.13;;;9.90;99.90;;;;;;5074852;28;20181;-65
2021/12/12 11:27:08;;;;;;;23.97;11.73;;;10.10;99.90;;;;;;5087680;28;20189;-64
2021/12/12 11:29:46;;;;;;;21.70;13.10;;;10.30;99.90;;;;;;5065296;28;20243;-64
2021/12/12 11:32:18;;;;;;;21.07;12.83;;;10.50;99.90;;;;;;5093471;28;20183;-64
2021/12/12 11:34:49;;;;;;;18.30;12.17;;;10.30;99.90;;;;;;5074780;28;20630;-64
2021/12/12 11:37:33;;;;;;;21.70;12.20;;;10.30;99.90;;;;;;5087640;28;20299;-64
2021/12/12 11:40:40;;;;;;;19.30;11.77;;;10.40;99.90;;;;;;5084261;28;20602;-64
2021/12/12 11:43:25;;;;;;;18.73;10.97;;;10.50;99.90;;;;;;4975029;28;20202;-64
2021/12/12 11:45:59;;;;;;;20.67;11.27;;;10.40;99.90;;;;;;5067308;28;20197;-64
2021/12/12 11:48:48;;;;;;;17.90;11.50;;;10.30;99.90;;;;;;5065370;28;20185;-64
2021/12/12 11:51:24;;;;;;;17.70;10.73;;;10.30;99.90;;;;;;5074365;28;20188;-64
2021/12/12 11:54:16;;;;;;;17.13;11.30;;;10.30;99.90;;;;;;5082891;28;20184;-64
2021/12/12 11:56:48;;;;;;;18.33;12.27;;;10.40;99.90;;;;;;5087997;28;20224;-63
2021/12/12 11:59:33;;;;;;;22.80;12.83;;;10.40;99.90;;;;;;5089967;28;20236;-64
2021/12/12 12:02:15;;;;;;;18.00;11.20;;;10.40;99.90;;;;;;5078337;28;20238;-63
2021/12/12 12:05:03;;;;;;;21.53;12.07;;;10.40;99.90;;;;;;5074408;28;20236;-63
2021/12/12 12:08:02;;;;;;;17.83;12.83;;;10.40;99.90;;;;;;5082433;28;20177;-64
2021/12/12 12:11:13;;;;;;;18.90;11.87;;;10.40;99.90;;;;;;5055055;28;20185;-63
2021/12/12 12:14:00;;;;;;;24.40;13.57;;;10.60;99.90;;;;;;5058720;28;20205;-64
2021/12/12 12:16:44;;;;;;;19.47;11.30;;;10.50;99.90;;;;;;5065986;28;20188;-64
2021/12/12 12:19:16;;;;;;;18.30;11.53;;;10.40;99.90;;;;;;5073908;28;20303;-63
2021/12/12 12:22:09;;;;;;;19.17;11.23;;;10.60;99.90;;;;;;5074580;28;20268;-62
2021/12/12 12:24:56;;;;;;;18.87;11.70;;;10.70;99.90;;;;;;5092551;28;20189;-63
2021/12/12 12:27:34;;;;;;;16.73;10.33;;;10.70;99.90;;;;;;5087463;28;20188;-62
2021/12/12 12:30:30;;;;;;;21.93;13.20;;;10.80;99.90;;;;;;5096479;28;20640;-63
2021/12/12 12:33:34;;;;;;;14.37;10.70;;;10.90;99.90;;;;;;5060056;28;20246;-63
2021/12/12 12:36:47;;;;;;;20.07;10.87;;;10.90;99.90;;;;;;5078531;28;20180;-63
2021/12/12 12:39:48;;;;;;;15.57;9.43;;;11.10;99.90;;;;;;5084009;28;20208;-63
2021/12/12 12:42:52;;;;;;;17.98;10.48;;;11.30;99.90;;;;;;5078135;28;20189;-63
2021/12/12 12:45:32;;;;;;;11.15;7.63;;;11.30;99.90;;;;;;5089530;28;20599;-63
2021/12/12 12:48:13;;;;;;;14.90;8.43;;;11.20;99.90;;;;;;5062131;28;20177;-63
2021/12/12 12:51:13;;;;;;;13.45;8.88;;;11.40;99.90;;;;;;5062379;28;20188;-63
2021/12/12 12:54:17;;;;;;;14.55;9.57;;;11.60;99.90;;;;;;5061321;28;20181;-63
2021/12/12 12:57:17;;;;;;;12.60;7.82;;;11.50;99.90;;;;;;5071173;28;20602;-64
2021/12/12 13:00:08;;;;;;;12.48;8.15;;;11.50;99.90;;;;;;5084294;28;20231;-63
2021/12/12 13:02:56;;;;;;;12.43;7.88;;;11.40;99.90;;;;;;5078035;28;20208;-63
2021/12/12 13:06:00;;;;;;;11.40;7.50;;;11.40;99.90;;;;;;5087013;28;20185;-63
2021/12/12 13:08:47;;;;;;;13.18;7.85;;;11.40;99.90;;;;;;4996944;28;20226;-63
2021/12/12 13:11:24;;;;;;;10.77;7.38;;;11.50;99.90;;;;;;5082780;28;20281;-63
2021/12/12 13:14:32;;;;;;;10.45;8.15;;;11.50;99.90;;;;;;5095487;28;20191;-63
2021/12/12 13:17:29;;;;;;;12.18;8.32;;;11.50;99.90;;;;;;5095675;28;20187;-63
2021/12/12 13:20:07;;;;;;;10.73;7.72;;;11.40;99.90;;;;;;5049817;28;20591;-62
2021/12/12 13:22:40;;;;;;;13.45;8.20;;;11.50;99.90;;;;;;5064795;28;20180;-63
2021/12/12 13:25:28;;;;;;;12.30;8.10;;;11.40;99.90;;;;;;5082830;28;20361;-63
2021/12/12 13:28:05;;;;;;;11.73;7.25;;;11.40;99.90;;;;;;5077545;28;20176;-63
2021/12/12 13:30:44;;;;;;;10.77;7.40;;;11.40;99.90;;;;;;5070607;28;20267;-64
2021/12/12 13:33:21;;;;;;;11.40;7.18;;;11.40;99.90;;;;;;5062673;28;20181;-63
2021/12/12 13:36:24;;;;;;;12.63;7.53;;;11.40;99.90;;;;;;5084590;28;20188;-63
2021/12/12 13:39:07;;;;;;;12.00;7.10;;;11.50;99.90;;;;;;5070625;28;20208;-63